This is the latest recevied weather packets stored in our database for station/object KB5SMY. If no packets are shown the sender has not sent any weather packets the latest 10 day(s).
| Time | Temp. | Humidity | Pressure | Rain* | Wind** | Luminosity | Snow |
|---|---|---|---|---|---|---|---|
| 1777393331 | 26.11° C | 85% | 1011.9 hPa | 0 mm | - | 283 W/m² | - |
| 1777391531 | 26.11° C | 86% | 1012 hPa | 0 mm | - | 183 W/m² | - |
| 1777390804 | 25.56° C | 86% | 1012 hPa | 0 mm | - | 172 W/m² | - |
| 1777387204 | 25° C | 88% | 1011.4 hPa | 0 mm | - | 199 W/m² | - |
| 1777385404 | 24.44° C | 89% | 1011.7 hPa | 0 mm | - | 100 W/m² | - |
| 1777384204 | 24.44° C | 89% | 1011.4 hPa | 0 mm | - | 86 W/m² | - |
| 1777379404 | 24.44° C | 88% | 1010.8 hPa | 0 mm | - | 23 W/m² | - |
| 1777373532 | 25° C | 85% | 1009.8 hPa | 0 mm | - | 0 W/m² | - |
| 1777370404 | 25° C | 85% | 1009.4 hPa | 0 mm | - | 0 W/m² | - |
| 1777366804 | 25° C | 87% | 1010.1 hPa | 0 mm | - | 0 W/m² | - |
| 1777366204 | 25° C | 87% | 1010 hPa | 0 mm | - | 0 W/m² | - |
| 1777364404 | 25° C | 89% | 1010 hPa | 0 mm | - | 0 W/m² | - |
| 1777357204 | 25.56° C | 86% | 1009.8 hPa | 0 mm | - | 0 W/m² | - |
| 1777356004 | 25.56° C | 86% | 1009.7 hPa | 0 mm | - | 0 W/m² | - |
| 1777353605 | 26.11° C | 83% | 1010.2 hPa | 0 mm | - | 0 W/m² | - |
| 1777347604 | 26.67° C | 80% | 1009.9 hPa | 0 mm | - | 0 W/m² | - |
| 1777345804 | 26.67° C | 78% | 1009.6 hPa | 0 mm | - | 0 W/m² | - |
| 1777339804 | 28.89° C | 73% | 1007.8 hPa | 0 mm | - | 0 W/m² | - |
| 1777337404 | 30° C | 70% | 1007.4 hPa | 0 mm | - | 18 W/m² | - |
| 1777334531 | 33.89° C | 42% | 1007.3 hPa | 0 mm | - | 185 W/m² | - |
| 1777333931 | 34.44° C | 39% | 1007.3 hPa | 0 mm | - | 137 W/m² | - |
| 1777332604 | 34.44° C | 38% | 1007.2 hPa | 0 mm | - | 325 W/m² | - |
| 1777332004 | 34.44° C | 39% | 1007.1 hPa | 0 mm | - | 403 W/m² | - |
| 1777330804 | 35° C | 39% | 1007 hPa | 0 mm | - | 448 W/m² | - |
| 1777330204 | 35° C | 40% | 1007 hPa | 0 mm | - | 485 W/m² | - |
* Rain latest hour (hover to see other rain measurements)
** Current wind speed in m/s (hover to see current wind gust speed)